Time;durP1;ratioP1;P1;durP2;ratioP2;P2;SDS_P1;SDS_P2;PMS_P1;PMS_P2;Temp;Humidity;BMP_temperature;BMP_pressure;BME280_temperature;BME280_humidity;BME280_pressure;Samples;Min_cycle;Max_cycle;Signal;HPM_P1;HPM_P2
2022/11/03 00:01:36;;;;;;;6.32;2.10;;;8.10;99.90;;;;;;4991667;28;20056;-68
2022/11/03 00:04:02;;;;;;;15.23;2.75;;;8.10;99.90;;;;;;5001734;28;20366;-67
2022/11/03 00:06:28;;;;;;;17.98;2.45;;;8.10;99.90;;;;;;5005216;28;20030;-67
2022/11/03 00:09:00;;;;;;;15.13;3.00;;;8.10;99.90;;;;;;5011212;28;20032;-68
2022/11/03 00:11:26;;;;;;;10.38;2.45;;;8.20;99.90;;;;;;5010066;28;20029;-68
2022/11/03 00:13:52;;;;;;;14.85;2.65;;;8.20;99.90;;;;;;5002827;28;20032;-67
2022/11/03 00:16:17;;;;;;;12.52;2.10;;;8.30;99.90;;;;;;5010059;28;20034;-68
2022/11/03 00:18:43;;;;;;;3.67;1.52;;;8.30;99.90;;;;;;5002954;28;20568;-67
2022/11/03 00:21:11;;;;;;;15.07;2.75;;;8.20;99.90;;;;;;5005401;28;20057;-68
2022/11/03 00:23:41;;;;;;;10.18;2.30;;;8.20;99.90;;;;;;5011745;28;20040;-67
2022/11/03 00:26:17;;;;;;;7.93;2.60;;;8.10;99.90;;;;;;5010267;28;20034;-68
2022/11/03 00:28:47;;;;;;;9.45;1.58;;;8.10;99.90;;;;;;5006492;28;20108;-67
2022/11/03 00:31:24;;;;;;;8.38;2.40;;;8.00;99.90;;;;;;5008162;28;20077;-68
2022/11/03 00:33:50;;;;;;;11.80;1.80;;;8.10;99.90;;;;;;5005263;28;20596;-68
2022/11/03 00:36:18;;;;;;;11.43;1.98;;;8.10;99.90;;;;;;5007745;28;20025;-68
2022/11/03 00:38:45;;;;;;;9.07;2.00;;;8.10;99.90;;;;;;5004620;28;20034;-68
2022/11/03 00:41:11;;;;;;;9.73;2.50;;;8.10;99.90;;;;;;5001210;28;20520;-68
2022/11/03 00:43:38;;;;;;;11.40;1.88;;;8.10;99.90;;;;;;5005877;28;20485;-68
2022/11/03 00:46:05;;;;;;;17.77;2.40;;;8.10;99.90;;;;;;5003935;28;20038;-67
2022/11/03 00:48:32;;;;;;;9.38;2.47;;;8.00;99.90;;;;;;5005774;28;20037;-68
2022/11/03 00:51:19;;;;;;;8.40;1.75;;;8.00;99.90;;;;;;5007711;28;20026;-68
2022/11/03 00:53:47;;;;;;;16.80;2.35;;;7.90;99.90;;;;;;5008573;28;20034;-68
2022/11/03 00:56:19;;;;;;;15.77;2.58;;;7.90;99.90;;;;;;5007859;28;20026;-68
2022/11/03 00:58:45;;;;;;;7.65;1.95;;;7.90;99.90;;;;;;5005228;28;20072;-67
2022/11/03 01:01:22;;;;;;;11.20;2.67;;;7.90;99.90;;;;;;5004650;28;20030;-68
2022/11/03 01:06:49;;;;;;;11.82;1.83;;;7.90;99.90;;;;;;5002290;28;20121;-68
2022/11/03 01:09:37;;;;;;;9.63;2.03;;;7.90;99.90;;;;;;4993303;28;20069;-67
2022/11/03 01:12:15;;;;;;;10.77;1.95;;;7.90;99.90;;;;;;5045391;28;20401;-68
2022/11/03 01:14:46;;;;;;;18.83;1.83;;;7.90;99.90;;;;;;5047337;28;20514;-67
2022/11/03 01:17:23;;;;;;;8.68;1.73;;;7.90;99.90;;;;;;5043424;28;20029;-67
2022/11/03 01:19:49;;;;;;;11.68;3.17;;;8.00;99.90;;;;;;5045469;28;20051;-68
2022/11/03 01:22:15;;;;;;;8.27;1.23;;;7.90;99.90;;;;;;5043997;28;20022;-67
2022/11/03 01:24:42;;;;;;;9.35;2.83;;;8.00;99.90;;;;;;5046220;28;20104;-67
2022/11/03 01:27:09;;;;;;;12.02;2.28;;;8.00;99.90;;;;;;5044332;28;20418;-68
2022/11/03 01:29:35;;;;;;;10.23;1.90;;;8.00;99.90;;;;;;5044170;28;20029;-68
2022/11/03 01:32:00;;;;;;;12.10;2.13;;;8.10;99.90;;;;;;5044774;28;20040;-67
2022/11/03 01:34:26;;;;;;;11.88;2.28;;;8.20;99.90;;;;;;5046694;28;20029;-67
2022/11/03 01:36:51;;;;;;;7.43;2.53;;;8.30;99.90;;;;;;5045664;28;20503;-67
2022/11/03 01:39:18;;;;;;;7.97;1.98;;;8.30;99.90;;;;;;5043932;28;20033;-67
2022/11/03 01:41:46;;;;;;;13.80;1.83;;;8.40;99.90;;;;;;5043697;28;20089;-67
2022/11/03 01:44:12;;;;;;;13.90;1.80;;;8.40;99.90;;;;;;5043277;28;20112;-67
2022/11/03 01:46:43;;;;;;;13.65;1.42;;;8.50;99.90;;;;;;5040819;28;20097;-67
2022/11/03 01:49:20;;;;;;;5.45;1.42;;;8.50;99.90;;;;;;5045715;28;20057;-67
2022/11/03 01:51:51;;;;;;;12.48;2.22;;;8.60;99.90;;;;;;5041108;28;20022;-67
2022/11/03 01:54:22;;;;;;;8.68;2.25;;;8.60;99.90;;;;;;5046212;28;20399;-67
2022/11/03 01:56:50;;;;;;;14.23;2.30;;;8.60;99.90;;;;;;5043242;28;20017;-67
2022/11/03 01:59:17;;;;;;;7.15;1.75;;;8.60;99.90;;;;;;5045358;28;20091;-67
2022/11/03 02:01:44;;;;;;;21.02;2.50;;;8.60;99.90;;;;;;5043706;28;20063;-67
2022/11/03 02:04:21;;;;;;;8.50;1.80;;;8.60;99.90;;;;;;5047816;28;20143;-67
2022/11/03 02:07:02;;;;;;;10.77;1.63;;;8.60;99.90;;;;;;5064270;28;20100;-67
2022/11/03 02:09:28;;;;;;;9.13;1.90;;;8.50;99.90;;;;;;5056943;28;20040;-67
2022/11/03 02:12:06;;;;;;;7.05;1.65;;;8.50;99.90;;;;;;5056983;28;20064;-67
2022/11/03 02:14:34;;;;;;;6.10;1.38;;;8.40;99.90;;;;;;5049527;28;20029;-67
2022/11/03 02:17:02;;;;;;;10.05;1.70;;;8.40;99.90;;;;;;5064939;28;20483;-67
2022/11/03 02:19:39;;;;;;;14.63;2.03;;;8.30;99.90;;;;;;5059560;28;20098;-68
2022/11/03 02:22:19;;;;;;;11.40;2.08;;;8.30;99.90;;;;;;5058441;28;20552;-67
2022/11/03 02:24:51;;;;;;;10.70;1.67;;;8.30;99.90;;;;;;5043787;28;20425;-67
2022/11/03 02:27:18;;;;;;;18.27;3.33;;;8.20;99.90;;;;;;5048362;28;20129;-67
2022/11/03 02:29:44;;;;;;;14.93;2.42;;;8.20;99.90;;;;;;5042402;28;20033;-67
2022/11/03 02:32:22;;;;;;;13.40;2.38;;;8.20;99.90;;;;;;5037168;28;20112;-68
2022/11/03 02:35:21;;;;;;;9.52;1.83;;;8.20;99.90;;;;;;5040588;28;20083;-67
2022/11/03 02:37:51;;;;;;;13.10;2.20;;;8.20;99.90;;;;;;5039471;28;20048;-67
2022/11/03 02:40:37;;;;;;;10.70;1.88;;;8.20;99.90;;;;;;5038772;28;20064;-67
2022/11/03 02:43:04;;;;;;;14.13;2.67;;;8.30;99.90;;;;;;5044528;28;20060;-67
2022/11/03 02:45:30;;;;;;;12.63;2.33;;;8.30;99.90;;;;;;5041074;28;20037;-67
2022/11/03 02:47:59;;;;;;;15.70;2.80;;;8.30;99.90;;;;;;5048778;28;20036;-67
2022/11/03 02:50:32;;;;;;;14.15;2.72;;;8.30;99.90;;;;;;5044713;28;20040;-67
2022/11/03 02:52:58;;;;;;;8.68;2.42;;;8.20;99.90;;;;;;5043556;28;20104;-67
2022/11/03 02:55:36;;;;;;;4.05;1.55;;;8.20;99.90;;;;;;5044758;28;20100;-67
2022/11/03 02:58:20;;;;;;;14.52;2.45;;;8.10;99.90;;;;;;5037441;28;20530;-67
2022/11/03 03:00:54;;;;;;;;;;;8.10;99.90;;;;;;5048728;28;20037;-67
2022/11/03 03:03:25;;;;;;;13.90;1.73;;;8.00;99.90;;;;;;5021517;28;20389;-67
2022/11/03 03:05:56;;;;;;;14.02;1.80;;;8.00;99.90;;;;;;5042901;28;20044;-67
2022/11/03 03:08:25;;;;;;;4.68;2.15;;;8.10;99.90;;;;;;5041354;28;20033;-67
2022/11/03 03:10:51;;;;;;;8.13;1.90;;;8.10;99.90;;;;;;5040296;28;20056;-67
2022/11/03 03:13:20;;;;;;;11.05;1.80;;;8.10;99.90;;;;;;5047170;28;20021;-68
2022/11/03 03:16:14;;;;;;;14.15;2.85;;;8.10;99.90;;;;;;5047550;28;20108;-67
2022/11/03 03:18:50;;;;;;;9.63;2.28;;;8.20;99.90;;;;;;5045979;28;20029;-68
2022/11/03 03:21:27;;;;;;;15.07;1.90;;;8.20;99.90;;;;;;5044382;28;20064;-68
2022/11/03 03:24:08;;;;;;;12.80;2.67;;;8.20;99.90;;;;;;5046314;28;20021;-67
2022/11/03 03:26:40;;;;;;;14.45;2.40;;;8.20;99.90;;;;;;5049397;28;20040;-67
2022/11/03 03:29:12;;;;;;;7.90;2.00;;;8.10;99.90;;;;;;5048431;28;20029;-67
2022/11/03 03:31:44;;;;;;;5.85;1.77;;;8.10;99.90;;;;;;5040980;28;20501;-68
2022/11/03 03:34:11;;;;;;;14.38;2.08;;;8.10;99.90;;;;;;5047529;28;20418;-67
2022/11/03 03:36:39;;;;;;;13.63;2.33;;;8.10;99.90;;;;;;5039231;28;20092;-67
2022/11/03 03:39:06;;;;;;;12.77;1.83;;;8.10;99.90;;;;;;5041447;28;20027;-67
2022/11/03 03:41:34;;;;;;;14.15;2.25;;;8.10;99.90;;;;;;5039296;28;20243;-67
2022/11/03 03:44:04;;;;;;;14.13;2.30;;;8.00;99.90;;;;;;5044996;28;20032;-68
2022/11/03 03:46:37;;;;;;;11.75;2.10;;;8.00;99.90;;;;;;5032746;28;20017;-67
2022/11/03 03:49:03;;;;;;;12.85;1.75;;;8.00;99.90;;;;;;5039305;28;20407;-67
2022/11/03 03:51:31;;;;;;;13.73;2.35;;;8.00;99.90;;;;;;5044039;28;20039;-67
2022/11/03 03:53:57;;;;;;;8.18;2.38;;;7.90;99.90;;;;;;5049388;28;20389;-67
2022/11/03 03:56:28;;;;;;;12.60;2.20;;;7.90;99.90;;;;;;5042142;28;20021;-68
2022/11/03 03:58:54;;;;;;;9.32;2.17;;;7.90;99.90;;;;;;5049461;28;20734;-67
2022/11/03 04:01:20;;;;;;;15.48;2.47;;;7.90;99.90;;;;;;5034969;28;20032;-67
2022/11/03 04:03:45;;;;;;;12.70;2.45;;;7.90;99.90;;;;;;5031619;28;20569;-67
2022/11/03 04:06:11;;;;;;;14.38;2.67;;;7.90;99.90;;;;;;5039959;28;20032;-67
2022/11/03 04:08:36;;;;;;;14.10;2.97;;;8.00;99.90;;;;;;5040915;28;20033;-68
2022/11/03 04:22:16;;;;;;;11.00;2.30;;;8.10;99.90;;;;;;5042697;28;20083;-67
2022/11/03 04:24:43;;;;;;;9.13;2.00;;;8.10;99.90;;;;;;5049024;28;20033;-67
2022/11/03 04:27:34;;;;;;;16.33;2.42;;;8.10;99.90;;;;;;5041857;28;20029;-67
2022/11/03 04:30:09;;;;;;;16.58;3.08;;;8.00;99.90;;;;;;5045600;28;20067;-67
2022/11/03 04:32:35;;;;;;;13.45;1.73;;;8.00;99.90;;;;;;5035833;28;20021;-67
2022/11/03 04:35:10;;;;;;;7.53;1.90;;;7.90;99.90;;;;;;5039418;28;20064;-67
2022/11/03 04:37:36;;;;;;;8.23;2.00;;;7.90;99.90;;;;;;5038689;28;20018;-67
2022/11/03 04:40:12;;;;;;;13.38;2.80;;;7.90;99.90;;;;;;5037966;28;20490;-67
2022/11/03 04:42:37;;;;;;;12.10;2.88;;;7.80;99.90;;;;;;5031513;28;20024;-67
2022/11/03 04:45:22;;;;;;;7.53;1.98;;;7.90;99.90;;;;;;5038779;28;20026;-67
2022/11/03 04:47:48;;;;;;;13.65;1.77;;;7.80;99.90;;;;;;5034456;28;20395;-67
2022/11/03 04:50:18;;;;;;;18.10;2.53;;;7.90;99.90;;;;;;5040423;28;20040;-67
2022/11/03 04:52:45;;;;;;;6.82;1.98;;;7.90;99.90;;;;;;5039109;28;20479;-67
2022/11/03 04:55:15;;;;;;;13.48;2.28;;;7.80;99.90;;;;;;5041702;28;20024;-67
2022/11/03 04:57:40;;;;;;;11.25;2.08;;;7.80;99.90;;;;;;5030722;28;20026;-67
2022/11/03 05:00:06;;;;;;;7.20;1.92;;;7.80;99.90;;;;;;5040808;28;20437;-67
2022/11/03 05:02:32;;;;;;;11.60;2.20;;;7.80;99.90;;;;;;5039836;28;20108;-67
2022/11/03 05:04:58;;;;;;;13.15;4.03;;;7.90;99.90;;;;;;5025352;28;20136;-67
2022/11/03 05:07:31;;;;;;;12.63;2.13;;;7.90;99.90;;;;;;5040031;28;20806;-67
2022/11/03 05:09:57;;;;;;;11.10;2.22;;;8.00;99.90;;;;;;5041190;28;20457;-67
2022/11/03 05:12:23;;;;;;;12.85;1.88;;;8.00;99.90;;;;;;5033457;28;20116;-67
2022/11/03 05:14:49;;;;;;;10.38;1.85;;;8.10;99.90;;;;;;5044406;28;20074;-66
2022/11/03 05:17:27;;;;;;;13.00;3.13;;;8.10;99.90;;;;;;5044240;28;20566;-67
2022/11/03 05:20:02;;;;;;;6.65;2.15;;;8.00;99.90;;;;;;5045195;28;20430;-67
2022/11/03 05:22:33;;;;;;;5.60;2.47;;;8.00;99.90;;;;;;5032473;28;20055;-67
2022/11/03 05:25:24;;;;;;;5.00;1.85;;;8.00;99.90;;;;;;5045604;28;20107;-67
2022/11/03 05:27:50;;;;;;;13.23;2.55;;;8.00;99.90;;;;;;5045076;28;20028;-67
2022/11/03 05:30:15;;;;;;;11.30;2.58;;;8.00;99.90;;;;;;5045105;28;20033;-67
2022/11/03 05:32:41;;;;;;;7.75;1.85;;;8.00;99.90;;;;;;5047710;28;20394;-67
2022/11/03 05:35:21;;;;;;;8.93;2.20;;;8.10;99.90;;;;;;5045329;28;20017;-67
2022/11/03 05:37:46;;;;;;;12.35;1.92;;;8.10;99.90;;;;;;5044044;28;20033;-67
2022/11/03 05:40:23;;;;;;;11.02;2.40;;;8.20;99.90;;;;;;5033598;28;20042;-67
2022/11/03 05:42:58;;;;;;;5.68;2.17;;;8.20;99.90;;;;;;5037356;28;20525;-67
2022/11/03 05:45:31;;;;;;;20.30;3.85;;;8.20;99.90;;;;;;5047614;28;20040;-67
2022/11/03 05:47:58;;;;;;;8.15;1.70;;;8.20;99.90;;;;;;5044747;28;20536;-67
2022/11/03 05:50:26;;;;;;;14.23;1.52;;;8.20;99.90;;;;;;5046569;28;20025;-67
2022/11/03 05:53:03;;;;;;;13.77;2.33;;;8.20;99.90;;;;;;5039867;28;20375;-67
2022/11/03 05:55:34;;;;;;;12.00;2.30;;;8.20;99.90;;;;;;5047429;28;20035;-66
2022/11/03 05:58:11;;;;;;;9.95;2.40;;;8.20;99.90;;;;;;5046980;28;20032;-67
2022/11/03 06:00:40;;;;;;;12.85;2.42;;;8.20;99.90;;;;;;5046458;28;20021;-67
2022/11/03 06:03:06;;;;;;;13.48;2.22;;;8.20;99.90;;;;;;5033483;28;20064;-67
2022/11/03 06:05:33;;;;;;;11.02;2.40;;;8.20;99.90;;;;;;5037618;28;20072;-67
2022/11/03 06:08:02;;;;;;;6.60;1.67;;;8.20;99.90;;;;;;5046690;28;20029;-67
2022/11/03 06:10:35;;;;;;;7.50;1.85;;;8.20;99.90;;;;;;5047313;28;20079;-67
2022/11/03 06:13:10;;;;;;;5.25;2.28;;;8.30;99.90;;;;;;5045661;28;20030;-68
2022/11/03 06:15:36;;;;;;;17.70;2.63;;;8.30;99.90;;;;;;5049108;28;20048;-67
2022/11/03 06:18:12;;;;;;;9.60;2.63;;;8.30;99.90;;;;;;5043184;28;20029;-67
2022/11/03 06:20:38;;;;;;;10.18;2.15;;;8.50;99.90;;;;;;5038454;28;20029;-67
2022/11/03 06:23:14;;;;;;;10.23;2.70;;;8.50;99.90;;;;;;5046512;28;20025;-67
2022/11/03 06:25:42;;;;;;;15.95;3.58;;;8.50;99.90;;;;;;5048895;28;20036;-68
2022/11/03 06:28:13;;;;;;;15.23;2.45;;;8.60;99.90;;;;;;5044334;28;20053;-67
2022/11/03 06:30:41;;;;;;;10.93;2.15;;;8.60;99.90;;;;;;5036559;28;20124;-68
2022/11/03 06:33:13;;;;;;;10.25;2.47;;;8.70;99.90;;;;;;5041127;28;20025;-68
2022/11/03 06:35:39;;;;;;;7.82;2.22;;;8.70;99.90;;;;;;5043238;28;20052;-67
2022/11/03 06:38:18;;;;;;;12.90;2.25;;;8.80;99.90;;;;;;5041121;28;20056;-68
2022/11/03 06:40:45;;;;;;;11.93;1.80;;;8.90;99.90;;;;;;5043496;28;20032;-67
2022/11/03 06:43:17;;;;;;;5.40;2.20;;;9.00;99.90;;;;;;5041610;28;20025;-67
2022/11/03 06:46:19;;;;;;;10.27;1.65;;;9.10;99.90;;;;;;5042461;28;20443;-67
2022/11/03 06:48:45;;;;;;;14.55;2.13;;;9.10;99.90;;;;;;5050394;28;20585;-68
2022/11/03 06:51:25;;;;;;;10.30;1.98;;;9.10;99.90;;;;;;5049921;28;20029;-67
2022/11/03 06:53:53;;;;;;;10.82;2.00;;;9.20;99.90;;;;;;5050687;28;20519;-67
2022/11/03 06:56:23;;;;;;;8.82;2.38;;;9.20;99.90;;;;;;5048765;28;20036;-67
2022/11/03 06:58:51;;;;;;;10.13;1.90;;;9.30;99.90;;;;;;5045948;28;20025;-67
2022/11/03 07:01:28;;;;;;;14.73;2.58;;;9.30;99.90;;;;;;5042922;28;20112;-67
2022/11/03 07:04:17;;;;;;;19.38;3.53;;;9.40;99.90;;;;;;5024487;28;20458;-68
2022/11/03 07:06:43;;;;;;;16.30;2.35;;;9.50;99.90;;;;;;5041213;28;20115;-68
2022/11/03 07:09:25;;;;;;;9.32;2.22;;;9.50;99.90;;;;;;5043545;28;20534;-68
2022/11/03 07:11:53;;;;;;;8.35;2.20;;;9.60;99.90;;;;;;5040731;28;20082;-68
2022/11/03 07:14:23;;;;;;;11.43;2.28;;;9.60;99.90;;;;;;5043631;28;20021;-67
2022/11/03 07:16:51;;;;;;;6.03;1.80;;;9.70;99.90;;;;;;5048802;28;20029;-67
2022/11/03 07:19:22;;;;;;;10.15;1.60;;;9.60;99.90;;;;;;5047428;28;20463;-68
2022/11/03 07:21:53;;;;;;;6.93;2.00;;;9.60;99.90;;;;;;5048737;28;20036;-67
2022/11/03 07:24:25;;;;;;;10.23;2.47;;;9.50;99.90;;;;;;5049807;28;20056;-68
2022/11/03 07:27:14;;;;;;;9.27;2.15;;;9.40;99.90;;;;;;5047233;28;20029;-68
2022/11/03 07:29:40;;;;;;;7.32;1.85;;;9.40;99.90;;;;;;5034512;28;20706;-67
2022/11/03 07:32:28;;;;;;;11.90;2.03;;;9.40;99.90;;;;;;5042470;28;20033;-68
2022/11/03 07:35:03;;;;;;;6.30;3.22;;;9.30;99.90;;;;;;5047470;28;20032;-67
2022/11/03 07:37:29;;;;;;;14.57;2.17;;;9.30;99.90;;;;;;5046169;28;20051;-68
2022/11/03 07:39:57;;;;;;;7.78;2.10;;;9.30;99.90;;;;;;5047475;28;20017;-67
2022/11/03 07:42:24;;;;;;;10.13;1.90;;;9.30;99.90;;;;;;5044682;28;20045;-68
2022/11/03 07:44:52;;;;;;;15.32;3.58;;;9.30;99.90;;;;;;5042795;28;20059;-67
2022/11/03 07:47:20;;;;;;;8.80;2.17;;;9.40;99.90;;;;;;5041568;28;20418;-67
2022/11/03 07:49:46;;;;;;;5.85;2.40;;;9.50;99.90;;;;;;5047897;28;20033;-68
2022/11/03 07:52:15;;;;;;;6.25;1.95;;;9.70;99.90;;;;;;5035611;28;20036;-67
2022/11/03 07:54:41;;;;;;;6.85;1.85;;;9.90;99.90;;;;;;5031175;28;20796;-68
2022/11/03 07:57:29;;;;;;;11.57;2.08;;;10.10;99.90;;;;;;5041015;28;20041;-67
2022/11/03 08:00:00;;;;;;;10.23;2.13;;;10.30;99.90;;;;;;5043363;28;20029;-68
2022/11/03 08:02:35;;;;;;;11.88;2.20;;;10.50;99.90;;;;;;5042067;28;20056;-68
2022/11/03 08:05:01;;;;;;;12.20;2.72;;;10.70;99.90;;;;;;5029375;28;20095;-67
2022/11/03 08:07:27;;;;;;;9.65;2.22;;;10.90;99.90;;;;;;5040640;28;20039;-67
2022/11/03 08:09:53;;;;;;;8.13;1.83;;;11.00;99.90;;;;;;5039837;28;20097;-67
2022/11/03 08:12:19;;;;;;;10.40;2.00;;;11.20;99.90;;;;;;5043851;28;20029;-67
2022/11/03 08:14:45;;;;;;;11.63;2.67;;;11.40;99.90;;;;;;5039968;28;20567;-67
2022/11/03 08:17:11;;;;;;;12.70;2.08;;;11.60;99.90;;;;;;5043818;28;20104;-67
2022/11/03 08:19:37;;;;;;;6.22;2.03;;;11.80;99.90;;;;;;5041384;28;20100;-68
2022/11/03 08:22:02;;;;;;;7.43;1.90;;;11.90;99.90;;;;;;5050428;28;20113;-68
2022/11/03 08:24:28;;;;;;;10.52;2.38;;;12.10;99.90;;;;;;5050976;28;20430;-67
2022/11/03 08:26:53;;;;;;;7.00;2.50;;;12.10;99.90;;;;;;5044691;28;20033;-67
2022/11/03 08:29:20;;;;;;;9.35;2.80;;;12.20;99.90;;;;;;5038955;28;20051;-67
2022/11/03 08:31:45;;;;;;;9.68;2.58;;;12.30;99.90;;;;;;5039791;28;20127;-67
2022/11/03 08:34:11;;;;;;;7.38;1.90;;;12.40;99.90;;;;;;5050430;28;20115;-67
2022/11/03 08:36:37;;;;;;;8.18;2.05;;;12.40;99.90;;;;;;5049676;28;20104;-67
2022/11/03 08:39:03;;;;;;;11.88;2.65;;;12.40;99.90;;;;;;5047910;28;20490;-67
2022/11/03 08:41:30;;;;;;;5.15;1.75;;;12.50;99.90;;;;;;5041852;28;20075;-68
2022/11/03 08:43:55;;;;;;;8.05;2.40;;;12.60;99.90;;;;;;5044440;28;20030;-67
2022/11/03 08:46:21;;;;;;;11.00;2.60;;;12.60;99.90;;;;;;5042203;28;20029;-68
2022/11/03 08:48:46;;;;;;;9.43;2.20;;;12.70;99.90;;;;;;5035913;28;20022;-67
2022/11/03 08:51:13;;;;;;;7.15;1.92;;;12.80;99.90;;;;;;5043183;28;20168;-67
2022/11/03 08:53:41;;;;;;;7.43;2.17;;;12.80;99.90;;;;;;5039187;28;20026;-67
2022/11/03 08:56:07;;;;;;;8.50;2.22;;;13.00;99.90;;;;;;5041665;28;20613;-67
2022/11/03 08:58:32;;;;;;;8.30;2.72;;;13.00;99.90;;;;;;5042492;28;20123;-67
2022/11/03 09:00:58;;;;;;;8.57;2.05;;;13.10;99.90;;;;;;5042171;28;20063;-68
2022/11/03 09:03:23;;;;;;;9.18;1.88;;;13.20;99.90;;;;;;5020243;28;20036;-67
2022/11/03 09:05:49;;;;;;;12.05;2.70;;;13.10;99.90;;;;;;5047657;28;20162;-68
2022/11/03 09:08:15;;;;;;;11.30;1.80;;;13.20;99.90;;;;;;5037818;28;20036;-67
2022/11/03 09:10:40;;;;;;;6.47;2.10;;;13.20;99.90;;;;;;5037997;28;20044;-67
2022/11/03 09:13:06;;;;;;;8.55;1.92;;;13.30;99.90;;;;;;5041616;28;20108;-67
2022/11/03 09:15:32;;;;;;;8.70;1.92;;;13.30;99.90;;;;;;5040796;28;20061;-68
2022/11/03 09:17:58;;;;;;;4.45;1.58;;;13.40;99.90;;;;;;5039495;28;20025;-68
2022/11/03 09:20:23;;;;;;;11.35;1.90;;;13.70;99.90;;;;;;5045109;28;20435;-68
2022/11/03 09:22:49;;;;;;;7.07;2.30;;;13.80;99.90;;;;;;5036678;28;20026;-68
2022/11/03 09:25:15;;;;;;;5.38;1.40;;;14.00;99.90;;;;;;5043963;28;20029;-68
2022/11/03 09:27:41;;;;;;;9.52;2.00;;;14.00;99.90;;;;;;5039555;28;20210;-68
2022/11/03 09:30:07;;;;;;;8.38;2.35;;;14.10;99.90;;;;;;5037935;28;20199;-67
2022/11/03 09:32:33;;;;;;;4.88;2.25;;;14.00;99.90;;;;;;5040945;28;20354;-67
2022/11/03 09:34:58;;;;;;;9.05;2.13;;;14.10;99.90;;;;;;5041304;28;20028;-68
2022/11/03 09:37:24;;;;;;;7.18;1.88;;;13.90;99.90;;;;;;5040089;28;20022;-67
2022/11/03 09:39:50;;;;;;;6.15;1.90;;;13.90;99.90;;;;;;5040134;28;20018;-68
2022/11/03 09:42:17;;;;;;;7.10;2.00;;;13.80;99.90;;;;;;5049215;28;20120;-67
2022/11/03 09:44:45;;;;;;;8.55;2.08;;;13.80;99.90;;;;;;5044786;28;20053;-68
2022/11/03 09:47:21;;;;;;;6.80;1.65;;;13.80;99.90;;;;;;5045582;28;20553;-67
2022/11/03 09:49:47;;;;;;;8.20;2.25;;;13.90;99.90;;;;;;5042817;28;20106;-67
2022/11/03 09:52:16;;;;;;;8.35;1.60;;;13.90;99.90;;;;;;5047636;28;20490;-67
2022/11/03 09:54:42;;;;;;;6.20;1.95;;;13.90;99.90;;;;;;5048931;28;20017;-68
2022/11/03 09:57:14;;;;;;;6.95;1.73;;;13.70;99.90;;;;;;5045269;28;20478;-68
2022/11/03 09:59:42;;;;;;;4.72;1.73;;;13.70;99.90;;;;;;5046718;28;20685;-68
2022/11/03 10:02:25;;;;;;;6.10;1.90;;;13.80;99.90;;;;;;5049218;28;20041;-68
2022/11/03 10:04:52;;;;;;;9.07;1.65;;;13.80;99.90;;;;;;5028685;28;20056;-68
2022/11/03 10:07:20;;;;;;;6.65;2.00;;;14.00;99.90;;;;;;5041881;28;20402;-67
2022/11/03 10:09:49;;;;;;;10.23;3.55;;;14.00;99.90;;;;;;5037820;28;20028;-67
2022/11/03 10:12:15;;;;;;;3.83;1.50;;;14.10;99.90;;;;;;5036084;28;20022;-67
2022/11/03 10:14:43;;;;;;;6.10;1.90;;;14.20;99.90;;;;;;5037985;28;20044;-67
2022/11/03 10:17:18;;;;;;;9.95;1.35;;;14.30;99.90;;;;;;5039705;28;20025;-67
2022/11/03 10:19:48;;;;;;;9.13;1.80;;;14.50;99.90;;;;;;5042850;28;20032;-67
2022/11/03 10:22:14;;;;;;;11.02;1.80;;;14.60;99.90;;;;;;5046231;28;20039;-67
2022/11/03 10:24:39;;;;;;;4.05;2.10;;;14.60;99.90;;;;;;5045986;28;20390;-68
2022/11/03 10:27:24;;;;;;;6.53;1.65;;;14.60;99.90;;;;;;5039525;28;20029;-68
2022/11/03 10:32:54;;;;;;;8.65;2.63;;;14.60;99.90;;;;;;5020588;28;20060;-65
2022/11/03 10:35:33;;;;;;;4.70;1.50;;;14.50;99.90;;;;;;5022646;28;20021;-65
2022/11/03 10:38:29;;;;;;;12.50;2.50;;;14.50;99.90;;;;;;5026607;28;20041;-64
2022/11/03 10:40:56;;;;;;;5.65;1.58;;;14.40;99.90;;;;;;5012033;28;20425;-64
2022/11/03 10:43:22;;;;;;;10.35;2.25;;;14.40;99.90;;;;;;5012399;28;20040;-65
2022/11/03 10:45:54;;;;;;;14.02;1.80;;;14.50;99.90;;;;;;5026703;28;20538;-65
2022/11/03 10:48:20;;;;;;;9.43;1.70;;;14.40;99.90;;;;;;5025137;28;20025;-65
2022/11/03 10:50:45;;;;;;;5.90;1.60;;;14.40;99.90;;;;;;5022619;28;20380;-65
2022/11/03 10:53:17;;;;;;;6.63;2.67;;;14.40;99.90;;;;;;5023023;28;20030;-65
2022/11/03 10:55:43;;;;;;;12.98;1.73;;;14.30;99.90;;;;;;5012025;28;20021;-64
2022/11/03 10:58:09;;;;;;;8.10;1.80;;;14.30;99.90;;;;;;5026576;28;20494;-63
2022/11/03 11:00:34;;;;;;;7.78;2.33;;;14.30;99.90;;;;;;5025210;28;20025;-65
2022/11/03 11:03:00;;;;;;;6.40;2.22;;;14.40;99.90;;;;;;5019522;28;20597;-65
2022/11/03 11:05:26;;;;;;;4.18;1.40;;;14.30;99.90;;;;;;5013381;28;20123;-65
2022/11/03 11:07:53;;;;;;;7.63;1.88;;;14.40;99.90;;;;;;5021964;28;20093;-65
2022/11/03 11:10:24;;;;;;;5.28;1.50;;;14.30;99.90;;;;;;5022471;28;20715;-64
2022/11/03 11:13:04;;;;;;;5.63;1.40;;;14.40;99.90;;;;;;4999538;28;20025;-65
2022/11/03 11:15:45;;;;;;;10.88;2.47;;;14.40;99.90;;;;;;5018176;28;20034;-64
2022/11/03 11:18:31;;;;;;;7.22;1.90;;;14.40;99.90;;;;;;5023801;28;20048;-65
2022/11/03 11:20:59;;;;;;;13.23;2.17;;;14.30;99.90;;;;;;5025971;28;20025;-63
2022/11/03 11:23:28;;;;;;;11.73;2.17;;;14.10;99.90;;;;;;5027915;28;20044;-64
2022/11/03 11:26:08;;;;;;;7.55;1.83;;;14.10;99.90;;;;;;5025640;28;20029;-64
2022/11/03 11:28:39;;;;;;;7.90;1.55;;;14.10;99.90;;;;;;5023443;28;20025;-64
2022/11/03 11:31:26;;;;;;;9.73;2.05;;;14.10;99.90;;;;;;5016278;28;20036;-62
2022/11/03 11:34:17;;;;;;;6.22;2.25;;;14.20;99.90;;;;;;5006562;28;20508;-64
2022/11/03 11:37:02;;;;;;;5.10;2.08;;;14.20;99.90;;;;;;5007816;28;20025;-64
2022/11/03 11:39:29;;;;;;;7.38;2.53;;;14.20;99.90;;;;;;5024707;28;20378;-64
2022/11/03 11:42:20;;;;;;;7.82;2.42;;;14.10;99.90;;;;;;5026929;28;20037;-65
2022/11/03 11:44:52;;;;;;;8.05;1.73;;;14.20;99.90;;;;;;5022380;28;20087;-64
2022/11/03 11:47:22;;;;;;;9.27;2.45;;;14.30;99.90;;;;;;5022515;28;20026;-65
2022/11/03 11:49:59;;;;;;;3.60;1.65;;;14.30;99.90;;;;;;5027521;28;20512;-64
2022/11/03 11:52:26;;;;;;;6.35;1.50;;;14.30;99.90;;;;;;5027028;28;20419;-64
2022/11/03 11:54:52;;;;;;;8.98;2.33;;;14.30;99.90;;;;;;5026777;28;20029;-65
2022/11/03 11:57:20;;;;;;;4.07;1.80;;;14.20;99.90;;;;;;5023795;28;20028;-65
2022/11/03 11:59:47;;;;;;;10.45;2.88;;;14.10;99.90;;;;;;5025698;28;20100;-65
2022/11/03 12:02:28;;;;;;;9.05;3.08;;;14.10;99.90;;;;;;5027777;28;20060;-64
2022/11/03 12:05:02;;;;;;;7.65;2.72;;;14.10;99.90;;;;;;5011704;28;20053;-64
2022/11/03 12:07:32;;;;;;;12.15;2.42;;;14.00;99.90;;;;;;5019410;28;20076;-64
2022/11/03 12:10:30;;;;;;;7.10;2.08;;;13.90;99.90;;;;;;5006371;28;20141;-65
2022/11/03 12:12:57;;;;;;;6.07;2.08;;;13.90;99.90;;;;;;5006640;28;20742;-63
2022/11/03 12:15:55;;;;;;;5.88;2.13;;;13.80;99.90;;;;;;5020996;28;20060;-65
2022/11/03 12:18:56;;;;;;;9.32;2.63;;;13.80;99.90;;;;;;5016051;28;20394;-64
2022/11/03 12:21:44;;;;;;;8.20;2.17;;;13.60;99.90;;;;;;4934284;29;20182;-64
2022/11/03 12:24:31;;;;;;;6.40;2.15;;;13.40;99.90;;;;;;5018872;28;20117;-63
2022/11/03 12:27:01;;;;;;;7.13;2.00;;;13.30;99.90;;;;;;5024300;28;20031;-67
2022/11/03 12:29:27;;;;;;;7.22;2.33;;;13.20;99.90;;;;;;5007199;28;20494;-65
2022/11/03 12:31:53;;;;;;;5.03;2.15;;;13.20;99.90;;;;;;5021445;28;20055;-64
2022/11/03 12:34:18;;;;;;;7.95;2.63;;;13.20;99.90;;;;;;5001767;28;20029;-63
2022/11/03 12:36:44;;;;;;;7.85;2.13;;;13.20;99.90;;;;;;5023642;28;20076;-63
2022/11/03 12:39:10;;;;;;;3.97;2.03;;;13.20;99.90;;;;;;5005082;28;20364;-63
2022/11/03 12:41:36;;;;;;;10.10;2.40;;;13.30;99.90;;;;;;4997095;28;20033;-63
2022/11/03 12:44:03;;;;;;;9.35;2.50;;;13.30;99.90;;;;;;5027407;28;20035;-64
2022/11/03 12:46:28;;;;;;;7.47;1.88;;;13.40;99.90;;;;;;5022841;28;20049;-64
2022/11/03 12:48:54;;;;;;;9.35;2.30;;;13.40;99.90;;;;;;5022407;28;20053;-64
2022/11/03 12:51:22;;;;;;;9.07;2.50;;;13.40;99.90;;;;;;5018360;28;20113;-63
2022/11/03 12:53:47;;;;;;;7.95;2.50;;;13.30;99.90;;;;;;5022788;28;20017;-63
2022/11/03 12:56:14;;;;;;;8.95;2.33;;;13.40;99.90;;;;;;5024241;28;20454;-64
2022/11/03 12:58:40;;;;;;;5.32;2.00;;;13.40;99.90;;;;;;5016140;28;20120;-64
2022/11/03 13:01:07;;;;;;;3.78;1.90;;;13.40;99.90;;;;;;5008055;28;20052;-62
2022/11/03 13:03:34;;;;;;;15.20;2.40;;;13.40;99.90;;;;;;5026662;28;20033;-64
2022/11/03 13:06:03;;;;;;;5.88;2.17;;;13.40;99.90;;;;;;5009481;28;20057;-63
2022/11/03 13:08:29;;;;;;;8.68;2.38;;;13.40;99.90;;;;;;5023671;28;20028;-64
2022/11/03 13:10:55;;;;;;;5.45;2.15;;;13.40;99.90;;;;;;5010472;28;20036;-64
2022/11/03 13:13:20;;;;;;;12.30;2.53;;;13.20;99.90;;;;;;5025070;28;20401;-63
2022/11/03 13:15:46;;;;;;;7.13;2.20;;;13.20;99.90;;;;;;5030149;28;20053;-64
2022/11/03 13:18:11;;;;;;;5.90;2.50;;;13.20;99.90;;;;;;5021741;28;20033;-64
2022/11/03 13:20:37;;;;;;;6.57;2.25;;;13.10;99.90;;;;;;5022016;28;20041;-63
2022/11/03 13:23:04;;;;;;;7.53;2.63;;;13.10;99.90;;;;;;5022588;28;20026;-62